Time;durP1;ratioP1;P1;durP2;ratioP2;P2;SDS_P1;SDS_P2;PMS_P1;PMS_P2;Temp;Humidity;BMP_temperature;BMP_pressure;BME280_temperature;BME280_humidity;BME280_pressure;Samples;Min_cycle;Max_cycle;Signal;HPM_P1;HPM_P2
2023/07/07 00:01:48;;;;;;;3.50;3.20;;;;;;;18.71;56.80;98893.00;5099614;27;103076;-74
2023/07/07 00:04:17;;;;;;;3.42;3.13;;;;;;;19.05;55.38;98886.69;5099539;27;103983;-74
2023/07/07 00:06:47;;;;;;;4.88;3.50;;;;;;;19.09;55.37;98882.66;5096844;27;103810;-74
2023/07/07 00:09:15;;;;;;;4.33;3.30;;;;;;;18.92;56.36;98888.94;5099505;27;103530;-74
2023/07/07 00:11:43;;;;;;;2.95;2.65;;;;;;;19.04;55.34;98885.00;5101801;27;103471;-74
2023/07/07 00:14:10;;;;;;;3.40;2.80;;;;;;;19.20;55.02;98886.09;5101293;27;102686;-74
2023/07/07 00:17:03;;;;;;;4.35;3.88;;;;;;;18.49;57.79;98884.50;5098015;27;103308;-74
2023/07/07 00:19:47;;;;;;;4.80;4.03;;;;;;;18.80;56.71;98890.22;5099105;27;103232;-74
2023/07/07 00:22:16;;;;;;;4.80;3.95;;;;;;;18.47;57.85;98897.13;5086162;27;102865;-74
2023/07/07 00:24:44;;;;;;;5.45;3.90;;;;;;;18.41;58.33;98892.41;5084049;27;102964;-74
2023/07/07 00:27:11;;;;;;;4.37;3.47;;;;;;;18.68;56.52;98893.31;5094142;27;103270;-74
2023/07/07 00:29:39;;;;;;;3.30;3.00;;;;;;;18.83;56.02;98889.91;5081718;27;103696;-74
2023/07/07 00:32:09;;;;;;;4.75;3.50;;;;;;;18.67;56.93;98896.97;5081351;27;102831;-74
2023/07/07 00:34:37;;;;;;;4.50;3.30;;;;;;;18.79;56.11;98901.06;5082953;27;102720;-74
2023/07/07 00:37:05;;;;;;;3.35;3.05;;;;;;;18.84;55.97;98893.41;5084992;27;103996;-74
2023/07/07 00:39:35;;;;;;;4.75;3.85;;;;;;;18.35;58.91;98892.19;5082206;27;104115;-74
2023/07/07 00:42:05;;;;;;;4.27;3.87;;;;;;;18.33;58.62;98894.19;5096181;27;103012;-74
2023/07/07 00:45:17;;;;;;;5.32;3.90;;;;;;;18.14;59.34;98889.00;5100695;27;102769;-74
2023/07/07 00:47:52;;;;;;;5.33;3.90;;;;;;;17.53;61.07;98892.38;5035943;27;103610;-74
2023/07/07 00:50:22;;;;;;;3.90;3.40;;;;;;;17.84;59.71;98899.09;5104668;27;103226;-74
2023/07/07 00:52:50;;;;;;;3.60;3.00;;;;;;;18.31;58.05;98906.88;5085219;27;103029;-74
2023/07/07 00:55:28;;;;;;;4.43;3.55;;;;;;;18.35;58.10;98900.22;5101613;27;103692;-73
2023/07/07 00:57:56;;;;;;;4.78;4.00;;;;;;;18.25;58.05;98897.63;5083651;27;104772;-74
2023/07/07 01:00:26;;;;;;;3.90;3.50;;;;;;;18.23;58.51;98896.94;5077650;27;104001;-74
2023/07/07 01:02:58;;;;;;;4.72;4.07;;;;;;;17.90;59.41;98903.84;5085676;27;102756;-73
2023/07/07 01:05:31;;;;;;;4.57;3.97;;;;;;;17.48;61.32;98908.00;5082695;27;102917;-74
2023/07/07 01:08:03;;;;;;;5.20;3.90;;;;;;;17.81;59.64;98909.25;5081342;27;103198;-74
2023/07/07 01:10:34;;;;;;;4.10;3.47;;;;;;;17.84;59.59;98914.28;5104528;27;103123;-74
2023/07/07 01:13:02;;;;;;;5.32;3.95;;;;;;;17.73;59.86;98920.69;5085023;27;102821;-74
2023/07/07 01:15:35;;;;;;;6.38;3.83;;;;;;;18.03;58.08;98918.63;5084662;27;103809;-74
2023/07/07 01:18:16;;;;;;;5.63;3.87;;;;;;;17.95;58.82;98922.06;5097414;27;103689;-73
2023/07/07 01:21:01;;;;;;;6.30;3.80;;;;;;;18.03;58.27;98930.19;5103402;27;103179;-74
2023/07/07 01:23:59;;;;;;;5.65;4.30;;;;;;;17.31;61.56;98924.81;5088259;27;102886;-74
2023/07/07 01:26:46;;;;;;;4.43;4.03;;;;;;;17.29;62.64;98924.16;5098786;27;103436;-75
2023/07/07 01:29:52;;;;;;;4.20;3.33;;;;;;;17.62;60.65;98915.56;5081129;27;106195;-74
2023/07/07 01:32:26;;;;;;;3.53;3.20;;;;;;;17.67;60.83;98921.28;5051260;27;103382;-74
2023/07/07 01:34:57;;;;;;;4.80;3.93;;;;;;;17.55;60.75;98922.47;5082951;27;103112;-74
2023/07/07 01:37:27;;;;;;;4.78;4.10;;;;;;;17.07;63.20;98919.16;5086638;27;102715;-74
2023/07/07 01:39:55;;;;;;;4.90;3.58;;;;;;;17.21;62.45;98911.50;5099766;27;103905;-74
2023/07/07 01:42:31;;;;;;;3.50;3.20;;;;;;;17.54;60.47;98920.81;5104522;27;103402;-74
2023/07/07 01:45:10;;;;;;;7.00;4.10;;;;;;;17.65;60.43;98925.09;5102086;27;102983;-74
2023/07/07 01:47:41;;;;;;;5.95;4.07;;;;;;;17.57;60.94;98925.00;5084550;27;104593;-74
2023/07/07 01:50:15;;;;;;;7.43;4.32;;;;;;;16.76;64.77;98915.88;5083351;27;103242;-73
2023/07/07 01:52:47;;;;;;;5.17;3.77;;;;;;;16.98;63.83;98922.72;5081372;27;103042;-74
2023/07/07 01:55:22;;;;;;;4.10;3.70;;;;;;;17.32;61.71;98919.31;5082137;27;102651;-74
2023/07/07 01:57:54;;;;;;;4.55;4.00;;;;;;;17.30;62.29;98915.97;5103011;27;104687;-73
2023/07/07 02:00:23;;;;;;;3.30;3.00;;;;;;;17.58;60.18;98922.19;5081349;27;105835;-74
2023/07/07 02:02:53;;;;;;;4.53;3.93;;;;;;;17.23;62.49;98917.56;5101722;27;103252;-74
2023/07/07 02:05:21;;;;;;;3.45;3.15;;;;;;;17.31;61.87;98916.81;5084087;27;102715;-73
2023/07/07 02:07:49;;;;;;;3.83;3.40;;;;;;;17.53;61.21;98916.41;5085835;27;104487;-73
2023/07/07 02:10:17;;;;;;;4.45;4.05;;;;;;;17.05;63.62;98910.47;5102252;27;103339;-73
2023/07/07 02:12:48;;;;;;;4.93;3.92;;;;;;;17.16;62.85;98915.59;5104579;27;103246;-74
2023/07/07 02:15:16;;;;;;;4.47;4.07;;;;;;;17.07;63.11;98911.13;5084105;27;103143;-74
2023/07/07 02:17:44;;;;;;;4.95;4.25;;;;;;;17.05;62.91;98910.47;5082681;27;104124;-73
2023/07/07 02:20:14;;;;;;;4.30;3.60;;;;;;;16.61;65.13;98906.66;5102101;27;103250;-74
2023/07/07 02:22:42;;;;;;;4.53;4.13;;;;;;;16.85;63.88;98911.50;5083482;27;103285;-75
2023/07/07 02:25:10;;;;;;;4.93;4.30;;;;;;;16.57;65.49;98908.78;5085826;27;103102;-74
2023/07/07 02:27:38;;;;;;;5.30;4.00;;;;;;;16.86;64.13;98910.53;5099491;27;103640;-73
2023/07/07 02:30:07;;;;;;;3.63;3.15;;;;;;;17.17;62.31;98906.63;5102917;27;103312;-74
2023/07/07 02:32:35;;;;;;;5.32;3.70;;;;;;;17.14;62.74;98904.25;5103376;27;103182;-74
2023/07/07 02:35:06;;;;;;;4.63;4.05;;;;;;;16.98;63.63;98901.38;5102123;27;102692;-74
2023/07/07 02:37:36;;;;;;;4.05;3.65;;;;;;;17.06;63.36;98898.81;5082302;27;102652;-74
2023/07/07 02:40:09;;;;;;;4.83;4.10;;;;;;;16.93;64.12;98895.59;5083243;27;104294;-74
2023/07/07 02:42:38;;;;;;;4.95;4.15;;;;;;;16.68;65.16;98905.94;5101275;27;103171;-74
2023/07/07 02:45:07;;;;;;;4.18;3.63;;;;;;;16.80;63.98;98907.47;5100577;27;103899;-75
2023/07/07 02:47:35;;;;;;;4.95;3.92;;;;;;;16.36;66.70;98910.75;5083579;27;104095;-74
2023/07/07 02:50:03;;;;;;;4.57;4.03;;;;;;;16.42;66.55;98910.16;5083788;27;103268;-74
2023/07/07 02:52:31;;;;;;;4.25;3.85;;;;;;;16.47;65.94;98902.59;5085327;27;106006;-74
2023/07/07 02:55:00;;;;;;;4.57;4.15;;;;;;;15.92;68.03;98903.28;5103690;27;102748;-73
2023/07/07 02:57:28;;;;;;;4.47;3.97;;;;;;;16.05;67.33;98903.88;5084335;27;104286;-74
2023/07/07 02:59:56;;;;;;;3.28;2.92;;;;;;;16.47;65.22;98907.94;5079632;27;105232;-74
2023/07/07 03:02:24;;;;;;;4.25;3.60;;;;;;;16.56;64.74;98912.41;5085668;27;105074;-74
2023/07/07 03:04:52;;;;;;;4.57;3.60;;;;;;;16.48;65.18;98906.06;5080064;27;103453;-74
2023/07/07 03:07:20;;;;;;;3.78;3.15;;;;;;;16.66;64.05;98910.59;5080982;27;104013;-74
2023/07/07 03:09:48;;;;;;;3.45;2.90;;;;;;;16.81;62.97;98909.13;5100622;27;103719;-74
2023/07/07 03:12:19;;;;;;;3.50;3.13;;;;;;;16.80;63.08;98906.59;5082976;27;103604;-74
2023/07/07 03:14:46;;;;;;;5.47;3.97;;;;;;;16.40;65.61;98914.78;5083380;27;103333;-74
2023/07/07 03:17:16;;;;;;;3.70;3.40;;;;;;;16.56;64.75;98908.94;5085426;27;104001;-74
2023/07/07 03:19:47;;;;;;;3.30;3.00;;;;;;;16.75;63.76;98909.72;5076738;27;105376;-74
2023/07/07 03:22:18;;;;;;;4.53;4.00;;;;;;;16.68;64.37;98924.59;5081865;27;103179;-74
2023/07/07 03:24:53;;;;;;;4.30;3.70;;;;;;;16.48;64.97;98925.59;5074752;27;104213;-73
2023/07/07 03:27:37;;;;;;;4.80;3.97;;;;;;;16.50;64.94;98926.31;5080173;27;102694;-74
2023/07/07 03:30:10;;;;;;;5.00;4.50;;;;;;;16.07;66.63;98939.22;5085273;27;105404;-72
2023/07/07 03:32:52;;;;;;;4.30;3.90;;;;;;;16.15;66.70;98931.38;5082074;27;103213;-72
2023/07/07 03:35:20;;;;;;;3.63;3.33;;;;;;;16.49;65.06;98932.63;5093208;27;103101;-78
2023/07/07 03:37:49;;;;;;;3.50;3.20;;;;;;;16.67;63.89;98935.44;5091343;27;102744;-76
2023/07/07 03:40:18;;;;;;;4.57;4.00;;;;;;;16.61;64.73;98934.19;5091640;27;103782;-79
2023/07/07 03:42:47;;;;;;;4.70;4.20;;;;;;;16.08;67.67;98943.59;5088356;27;103261;-77
2023/07/07 03:45:16;;;;;;;6.55;4.18;;;;;;;16.08;67.82;98943.59;5090755;27;102707;-78
2023/07/07 03:47:45;;;;;;;5.43;4.10;;;;;;;15.98;67.59;98950.72;5091488;27;102930;-77
2023/07/07 03:50:14;;;;;;;5.10;4.28;;;;;;;15.89;68.19;98951.53;5089088;27;103166;-75
2023/07/07 03:52:42;;;;;;;4.35;3.95;;;;;;;16.21;66.08;98946.81;5106797;27;103147;-71
2023/07/07 03:55:10;;;;;;;6.18;4.15;;;;;;;15.57;69.58;98949.94;5108017;27;102754;-76
2023/07/07 03:57:38;;;;;;;3.97;3.38;;;;;;;16.19;66.50;98954.09;5089472;27;102629;-75
2023/07/07 04:00:08;;;;;;;3.00;2.80;;;;;;;16.50;64.78;98952.97;5087024;27;104097;-80
2023/07/07 04:02:44;;;;;;;3.53;2.90;;;;;;;16.69;63.70;98958.31;5105560;27;103291;-74
2023/07/07 04:05:12;;;;;;;4.38;2.83;;;;;;;16.79;63.27;98961.78;5085732;27;102848;-74
2023/07/07 04:07:40;;;;;;;4.88;4.07;;;;;;;16.61;64.77;98966.19;5085645;27;104049;-77
2023/07/07 04:10:09;;;;;;;4.80;4.00;;;;;;;16.44;66.39;98966.03;5090446;27;103259;-79
2023/07/07 04:12:38;;;;;;;14.38;6.35;;;;;;;16.51;67.77;98959.97;5087667;27;103061;-80
2023/07/07 04:15:08;;;;;;;6.43;4.65;;;;;;;16.65;71.06;98961.38;5092834;27;102590;-80
2023/07/07 04:17:36;;;;;;;5.50;4.63;;;;;;;16.42;67.99;98968.81;5082620;27;102775;-71
2023/07/07 04:20:08;;;;;;;5.65;4.30;;;;;;;16.48;69.33;98964.75;5076651;27;103932;-70
2023/07/07 04:22:36;;;;;;;5.00;4.00;;;;;;;16.50;67.86;98966.31;5081131;27;104510;-70
2023/07/07 04:25:13;;;;;;;4.07;3.67;;;;;;;16.62;67.38;98959.84;5085766;27;102681;-76
2023/07/07 04:27:41;;;;;;;4.53;4.13;;;;;;;16.67;66.98;98957.59;5085342;27;102766;-76
2023/07/07 04:30:12;;;;;;;3.47;3.13;;;;;;;16.88;66.43;98962.75;5101373;27;104193;-76
2023/07/07 04:32:41;;;;;;;3.35;3.05;;;;;;;17.06;65.35;98962.84;5105751;27;103337;-76
2023/07/07 04:35:09;;;;;;;3.00;2.60;;;;;;;17.24;64.67;98961.09;5105316;27;102660;-80
2023/07/07 04:37:37;;;;;;;3.83;3.40;;;;;;;17.30;64.73;98960.50;5112196;27;102599;-79
2023/07/07 04:40:06;;;;;;;3.90;3.10;;;;;;;17.40;64.18;98974.69;5111498;27;103274;-80
2023/07/07 04:42:35;;;;;;;3.90;3.50;;;;;;;17.47;64.44;98970.44;5107361;27;103292;-80
2023/07/07 04:45:03;;;;;;;3.33;3.03;;;;;;;17.54;63.77;98974.22;5096096;27;102991;-81
2023/07/07 04:47:33;;;;;;;3.28;2.97;;;;;;;17.64;63.38;98969.66;5096458;27;102802;-81
2023/07/07 04:50:00;;;;;;;3.15;2.85;;;;;;;17.73;63.26;98968.78;5094066;27;104468;-81
2023/07/07 04:52:28;;;;;;;3.50;3.20;;;;;;;17.80;63.09;98977.03;5111808;27;103189;-81
2023/07/07 04:54:56;;;;;;;3.40;3.10;;;;;;;17.86;62.80;98974.59;5090761;27;102834;-81
2023/07/07 04:57:24;;;;;;;3.08;2.80;;;;;;;17.95;62.32;98973.72;5095244;27;102736;-81
2023/07/07 04:59:52;;;;;;;3.17;2.88;;;;;;;18.02;62.24;98976.59;5109500;27;104327;-79
2023/07/07 05:02:22;;;;;;;4.88;4.40;;;;;;;17.95;63.25;98978.22;5113114;27;103294;-80
2023/07/07 05:04:52;;;;;;;4.75;4.10;;;;;;;17.99;63.82;98976.94;5112976;27;102569;-84
2023/07/07 05:07:20;;;;;;;4.07;3.67;;;;;;;18.09;64.01;98974.16;5095586;27;104132;-84
2023/07/07 05:09:48;;;;;;;5.57;4.97;;;;;;;17.72;65.84;98968.91;5113741;27;103460;-88
2023/07/07 05:12:17;;;;;;;6.97;5.40;;;;;;;17.71;65.83;98969.94;5105810;27;103224;-81
2023/07/07 05:14:45;;;;;;;8.18;6.10;;;;;;;17.30;66.88;98979.19;5105244;27;102611;-77
2023/07/07 05:17:13;;;;;;;5.73;4.57;;;;;;;17.76;66.07;98971.16;5108151;27;102594;-79
2023/07/07 05:19:40;;;;;;;5.20;4.68;;;;;;;18.17;65.28;98976.94;5102981;27;104017;-74
2023/07/07 05:22:09;;;;;;;9.10;6.18;;;;;;;17.73;66.96;98979.47;5104708;27;103327;-72
2023/07/07 05:24:37;;;;;;;7.30;5.88;;;;;;;18.16;65.84;98983.28;5102661;27;102667;-75
2023/07/07 05:27:06;;;;;;;5.00;4.50;;;;;;;18.37;65.64;98982.00;5105170;27;103784;-76
2023/07/07 05:29:34;;;;;;;6.85;5.15;;;;;;;18.53;65.08;98981.31;5106175;27;103261;-78
2023/07/07 05:32:02;;;;;;;6.18;5.57;;;;;;;18.32;66.08;98978.09;5106136;27;103220;-80
2023/07/07 05:34:30;;;;;;;6.93;5.85;;;;;;;18.59;66.20;98980.69;5104761;27;102706;-76
2023/07/07 05:36:58;;;;;;;5.10;4.70;;;;;;;18.76;65.73;98985.19;5084903;27;102938;-75
2023/07/07 05:39:27;;;;;;;5.78;4.90;;;;;;;18.80;65.34;98983.91;5092689;27;103523;-77
2023/07/07 05:41:55;;;;;;;7.18;5.57;;;;;;;18.77;65.30;98978.00;5050616;27;103370;-75
2023/07/07 05:44:23;;;;;;;7.40;6.40;;;;;;;18.64;66.68;98978.41;5061446;27;104042;-77
2023/07/07 05:46:51;;;;;;;7.80;6.25;;;;;;;18.45;67.83;98981.22;5058542;27;103218;-77
2023/07/07 05:49:19;;;;;;;6.18;5.57;;;;;;;18.78;65.75;98975.16;5061817;27;103962;-76
2023/07/07 05:51:46;;;;;;;8.40;6.03;;;;;;;18.99;66.06;98975.66;5057287;27;103233;-76
2023/07/07 05:54:15;;;;;;;10.00;6.40;;;;;;;18.80;63.61;98978.53;5060810;27;102718;-76
2023/07/07 05:56:44;;;;;;;7.85;6.70;;;;;;;18.36;65.82;98988.31;5061600;27;102618;-77
2023/07/07 05:59:12;;;;;;;7.63;5.93;;;;;;;18.62;64.47;98979.53;5060369;27;104123;-77
2023/07/07 06:01:45;;;;;;;4.97;4.47;;;;;;;19.31;63.55;98980.34;5060352;27;103460;-77
2023/07/07 06:04:13;;;;;;;5.60;4.68;;;;;;;19.63;63.53;98979.72;5031180;27;103029;-76
2023/07/07 06:06:41;;;;;;;6.28;5.57;;;;;;;19.56;64.38;98986.75;5059321;27;104520;-76
2023/07/07 06:09:09;;;;;;;6.37;5.03;;;;;;;19.76;60.87;98988.13;5059353;27;103589;-77
2023/07/07 06:11:37;;;;;;;4.90;4.38;;;;;;;19.93;60.83;98984.50;5055975;27;103175;-78
2023/07/07 06:14:06;;;;;;;5.93;4.50;;;;;;;19.96;59.76;98984.19;5054440;27;102992;-75
2023/07/07 06:16:34;;;;;;;5.90;4.68;;;;;;;20.10;59.60;98983.56;5058782;27;103840;-75
2023/07/07 06:19:04;;;;;;;6.37;5.10;;;;;;;19.31;63.23;98983.03;5056081;27;104304;-76
2023/07/07 06:21:32;;;;;;;5.28;4.28;;;;;;;19.91;62.00;98986.53;5054226;27;103324;-76
2023/07/07 06:24:00;;;;;;;4.30;3.90;;;;;;;20.34;59.93;98987.34;5060163;27;103048;-76
2023/07/07 06:26:28;;;;;;;4.93;4.30;;;;;;;20.31;57.00;98982.28;5037904;27;103814;-76
2023/07/07 06:28:57;;;;;;;4.43;3.88;;;;;;;20.49;56.44;98985.69;5041020;27;104224;-76
2023/07/07 06:31:27;;;;;;;5.30;4.30;;;;;;;20.54;57.06;98996.75;5058760;27;103456;-77
2023/07/07 06:33:55;;;;;;;5.00;3.80;;;;;;;20.87;55.29;98986.84;5056251;27;102850;-76
2023/07/07 06:36:23;;;;;;;5.97;4.35;;;;;;;20.67;56.85;98994.41;5060288;27;104036;-76
2023/07/07 06:38:50;;;;;;;4.87;4.07;;;;;;;20.76;56.45;98993.41;5039746;27;103104;-76
2023/07/07 06:41:21;;;;;;;5.15;4.30;;;;;;;20.91;55.21;98991.72;5061265;27;103213;-77
2023/07/07 06:43:50;;;;;;;4.00;3.47;;;;;;;21.47;54.88;99000.72;5056416;27;102666;-77
2023/07/07 06:46:24;;;;;;;5.63;4.28;;;;;;;21.61;52.80;98997.31;5057123;27;104304;-77
2023/07/07 06:48:53;;;;;;;4.15;3.75;;;;;;;21.80;53.10;98992.38;5042998;27;103794;-76
2023/07/07 06:51:23;;;;;;;6.32;4.57;;;;;;;21.71;53.05;98989.88;5060501;27;104279;-76
2023/07/07 06:53:51;;;;;;;5.37;3.90;;;;;;;21.85;52.73;98991.81;5062885;27;102908;-77
2023/07/07 06:56:19;;;;;;;5.63;4.32;;;;;;;21.94;52.41;98993.50;5059225;27;102890;-76
2023/07/07 06:58:47;;;;;;;3.80;3.30;;;;;;;22.39;50.54;98992.75;5056867;27;103425;-77
2023/07/07 07:01:16;;;;;;;3.90;3.60;;;;;;;22.56;50.93;98996.16;5057301;27;103264;-77
2023/07/07 07:03:44;;;;;;;4.38;3.78;;;;;;;22.57;50.23;98993.25;5043327;27;102819;-77
2023/07/07 07:06:14;;;;;;;5.40;3.73;;;;;;;22.80;50.25;99001.38;5057173;27;103652;-75
2023/07/07 07:08:44;;;;;;;5.15;4.57;;;;;;;22.87;50.25;99005.03;5056276;27;104146;-76
2023/07/07 07:11:11;;;;;;;5.05;4.10;;;;;;;23.29;48.81;98994.53;5036377;27;104393;-76
2023/07/07 07:13:39;;;;;;;4.93;4.00;;;;;;;23.77;47.41;98997.72;5056895;27;104531;-76
2023/07/07 07:16:07;;;;;;;5.03;3.88;;;;;;;23.45;48.69;98999.75;5038735;27;104168;-76
2023/07/07 07:18:35;;;;;;;3.90;3.60;;;;;;;23.58;48.13;99005.34;5057798;27;103376;-76
2023/07/07 07:21:03;;;;;;;5.03;4.07;;;;;;;23.52;48.21;99006.06;5042703;27;103248;-76
2023/07/07 07:23:32;;;;;;;4.85;4.35;;;;;;;23.35;47.91;99003.72;5057561;27;102667;-77
2023/07/07 07:26:06;;;;;;;4.47;4.07;;;;;;;23.34;48.70;98991.25;5060699;27;102848;-77
2023/07/07 07:28:34;;;;;;;8.05;4.35;;;;;;;23.32;48.12;99002.25;5057802;27;103855;-77
2023/07/07 07:31:02;;;;;;;4.75;3.95;;;;;;;23.97;46.23;98998.81;5040411;27;104521;-76
2023/07/07 07:33:31;;;;;;;4.90;3.70;;;;;;;24.16;46.33;98999.09;5051638;27;103723;-76
2023/07/07 07:35:59;;;;;;;4.90;4.20;;;;;;;24.52;45.94;98999.06;5055562;27;102972;-76
2023/07/07 07:38:26;;;;;;;4.72;3.97;;;;;;;24.65;46.30;99001.03;5041417;27;104060;-76
2023/07/07 07:40:56;;;;;;;6.13;4.50;;;;;;;24.17;46.18;98998.03;5061642;27;103015;-76
2023/07/07 07:43:24;;;;;;;7.63;4.82;;;;;;;24.86;44.66;99001.06;5062138;27;102587;-76
2023/07/07 07:45:52;;;;;;;7.20;4.37;;;;;;;25.12;45.14;99000.47;5041082;27;102995;-76
2023/07/07 07:48:20;;;;;;;5.47;4.78;;;;;;;25.17;44.43;98992.59;5058781;27;105220;-75
2023/07/07 07:50:47;;;;;;;5.23;4.53;;;;;;;25.62;44.11;98994.81;5042366;27;102925;-76
2023/07/07 07:53:15;;;;;;;6.82;4.72;;;;;;;25.54;43.96;98991.44;5060893;27;102714;-76
2023/07/07 07:55:43;;;;;;;7.13;4.40;;;;;;;25.88;42.48;98981.41;5060588;27;104134;-73
2023/07/07 07:58:12;;;;;;;4.50;4.10;;;;;;;26.32;43.00;98989.09;5059268;27;104131;-74
2023/07/07 08:00:40;;;;;;;4.78;4.25;;;;;;;26.81;42.99;98986.06;5044539;27;104224;-74
2023/07/07 08:03:08;;;;;;;6.70;4.40;;;;;;;26.32;41.86;98982.84;5043386;27;102955;-73
2023/07/07 08:05:36;;;;;;;6.00;4.57;;;;;;;27.01;41.95;98984.22;5059542;27;102647;-73
2023/07/07 08:08:07;;;;;;;6.45;4.50;;;;;;;27.21;41.46;98989.63;5058048;27;103427;-72
2023/07/07 08:10:35;;;;;;;5.45;4.88;;;;;;;27.17;41.23;98982.97;5060444;27;103265;-74
2023/07/07 08:13:03;;;;;;;5.57;4.40;;;;;;;27.52;40.13;98980.84;5061355;27;102921;-73
2023/07/07 08:15:32;;;;;;;5.13;4.40;;;;;;;28.13;40.23;98979.41;5037840;27;102963;-73
2023/07/07 08:18:00;;;;;;;8.30;4.03;;;;;;;28.85;38.59;98978.16;5058422;27;103401;-72
2023/07/07 08:20:28;;;;;;;5.40;4.38;;;;;;;28.89;38.67;98990.25;5058580;27;103197;-72
2023/07/07 08:22:56;;;;;;;4.53;4.10;;;;;;;29.38;37.04;98988.59;5052621;27;103052;-73
2023/07/07 08:25:27;;;;;;;5.53;4.53;;;;;;;29.58;37.75;98978.34;5055584;27;103791;-73
2023/07/07 08:27:54;;;;;;;4.70;4.07;;;;;;;29.24;38.22;98985.19;5058803;27;103316;-71
2023/07/07 08:30:25;;;;;;;4.87;4.20;;;;;;;29.76;37.01;98979.19;5034035;27;104417;-71
2023/07/07 08:32:55;;;;;;;6.55;4.53;;;;;;;30.15;36.11;98975.16;5057462;27;102737;-71
2023/07/07 08:35:23;;;;;;;5.93;4.40;;;;;;;30.03;36.95;98982.47;5056474;27;102869;-69
2023/07/07 08:37:51;;;;;;;5.47;4.55;;;;;;;30.69;37.55;98978.84;5053026;27;104226;-70
2023/07/07 08:40:22;;;;;;;4.60;4.10;;;;;;;31.12;36.51;98981.31;5056350;27;103357;-70
2023/07/07 08:42:51;;;;;;;8.35;4.47;;;;;;;31.18;35.25;98986.69;5060217;27;102792;-70
2023/07/07 08:45:21;;;;;;;4.63;4.15;;;;;;;31.37;36.31;98974.59;5061808;27;102607;-70
2023/07/07 08:48:06;;;;;;;5.55;4.72;;;;;;;31.70;34.75;98973.16;5054591;27;102890;-69
2023/07/07 08:50:41;;;;;;;5.85;4.70;;;;;;;31.53;35.09;98973.88;5057033;27;103148;-70
2023/07/07 08:53:37;;;;;;;6.50;4.60;;;;;;;31.90;34.92;98966.22;5059415;27;102624;-69
2023/07/07 08:56:11;;;;;;;6.03;4.80;;;;;;;31.74;34.66;98979.81;5039453;27;103683;-71
2023/07/07 08:58:49;;;;;;;6.22;5.43;;;;;;;31.93;35.18;98973.09;5036763;27;104274;-71
2023/07/07 09:01:30;;;;;;;5.95;5.05;;;;;;;31.89;34.56;98971.94;5058325;27;104478;-70
2023/07/07 09:04:09;;;;;;;5.80;5.20;;;;;;;32.20;33.54;98962.50;5055666;27;104072;-71
2023/07/07 09:06:50;;;;;;;5.33;4.83;;;;;;;32.92;33.95;98969.88;5061110;27;103876;-70
2023/07/07 09:09:28;;;;;;;6.38;4.65;;;;;;;32.64;34.79;98957.09;5044259;27;103295;-73
2023/07/07 09:12:08;;;;;;;5.80;5.20;;;;;;;33.10;33.14;98952.38;5053954;27;103187;-75
2023/07/07 09:14:37;;;;;;;5.70;4.70;;;;;;;32.81;33.92;98961.72;5053882;27;103070;-70
2023/07/07 09:17:23;;;;;;;5.70;5.03;;;;;;;33.83;32.28;98955.66;5056738;27;103813;-71
2023/07/07 09:19:55;;;;;;;6.22;5.38;;;;;;;33.50;31.99;98957.66;5040541;27;104617;-70
2023/07/07 09:22:28;;;;;;;7.28;4.80;;;;;;;34.54;31.55;98959.25;5056004;27;103817;-69
2023/07/07 09:25:02;;;;;;;5.28;4.75;;;;;;;34.50;32.75;98955.38;5044109;27;102815;-69
2023/07/07 09:27:35;;;;;;;5.72;4.90;;;;;;;33.53;31.80;98955.25;5060232;27;103989;-69
2023/07/07 09:30:12;;;;;;;5.93;5.32;;;;;;;33.91;29.15;98942.63;5058350;27;104077;-71
2023/07/07 09:32:40;;;;;;;8.70;5.80;;;;;;;33.45;29.36;98943.88;5039460;27;102987;-72
2023/07/07 09:35:13;;;;;;;6.20;5.60;;;;;;;32.69;28.67;98940.75;5056710;27;102910;-69
2023/07/07 09:37:51;;;;;;;6.50;5.85;;;;;;;34.32;28.63;98939.28;5059183;27;103873;-69
2023/07/07 09:40:27;;;;;;;6.68;6.03;;;;;;;34.03;27.76;98930.44;5061195;27;104160;-68
2023/07/07 09:43:05;;;;;;;7.03;6.32;;;;;;;33.51;27.80;98938.25;5059249;27;103239;-69
2023/07/07 09:45:39;;;;;;;7.00;6.30;;;;;;;33.49;28.34;98929.44;5061717;27;102943;-69
2023/07/07 09:48:23;;;;;;;6.47;5.88;;;;;;;34.03;26.17;98924.13;5062726;27;102831;-72
2023/07/07 09:51:01;;;;;;;7.00;6.30;;;;;;;34.16;27.57;98923.78;5060261;27;103565;-72
2023/07/07 09:53:33;;;;;;;7.68;6.60;;;;;;;33.69;26.70;98924.25;5051241;27;103195;-72
2023/07/07 09:56:18;;;;;;;7.03;6.20;;;;;;;33.89;26.16;98920.09;5060170;27;102803;-72
2023/07/07 09:58:53;;;;;;;7.22;6.53;;;;;;;34.15;26.84;98927.59;5048884;27;102871;-72
2023/07/07 10:01:23;;;;;;;6.97;6.38;;;;;;;34.29;26.00;98920.59;5045300;27;104172;-73
2023/07/07 10:03:52;;;;;;;7.03;6.40;;;;;;;34.17;27.11;98914.44;5043454;27;104247;-74
2023/07/07 10:06:26;;;;;;;7.33;6.63;;;;;;;33.99;26.45;98912.03;5040614;27;102785;-72
2023/07/07 10:08:54;;;;;;;6.97;6.28;;;;;;;34.63;27.60;98918.50;5064338;27;102872;-69
2023/07/07 10:11:28;;;;;;;7.10;6.35;;;;;;;34.01;26.86;98913.41;5061798;27;103269;-74
2023/07/07 10:14:07;;;;;;;8.13;7.20;;;;;;;33.81;26.33;98916.75;5046307;27;103710;-73
2023/07/07 10:16:49;;;;;;;8.10;7.28;;;;;;;33.95;28.08;98906.22;5062633;27;102812;-74
2023/07/07 10:19:20;;;;;;;7.43;6.73;;;;;;;34.96;24.83;98912.75;5066114;27;102617;-77
2023/07/07 10:21:53;;;;;;;7.10;6.40;;;;;;;34.94;25.32;98904.78;5067628;27;103545;-77
2023/07/07 10:24:24;;;;;;;8.48;7.68;;;;;;;35.07;24.71;98894.44;5063065;27;103134;-71
2023/07/07 10:26:53;;;;;;;7.70;6.90;;;;;;;35.60;24.54;98891.50;5059730;27;102663;-69
2023/07/07 10:29:27;;;;;;;7.30;6.70;;;;;;;35.66;26.37;98895.09;5062753;27;103661;-69
2023/07/07 10:31:55;;;;;;;7.95;7.20;;;;;;;35.57;25.33;98897.53;5056283;27;103303;-73
2023/07/07 10:34:33;;;;;;;8.68;7.95;;;;;;;35.48;24.36;98896.38;5056948;27;103479;-73
2023/07/07 10:37:18;;;;;;;8.73;7.93;;;;;;;34.25;25.61;98908.50;5035572;27;103222;-73
2023/07/07 10:39:51;;;;;;;9.13;8.33;;;;;;;34.62;25.86;98895.72;5050038;27;103040;-74
2023/07/07 10:42:23;;;;;;;9.90;8.60;;;;;;;35.37;25.48;98897.41;5041203;27;103907;-73
2023/07/07 10:44:52;;;;;;;10.40;9.40;;;;;;;35.71;24.68;98903.34;5041910;27;103275;-75
2023/07/07 10:47:29;;;;;;;10.10;9.13;;;;;;;35.50;24.39;98899.66;5056166;27;103041;-75
2023/07/07 10:50:07;;;;;;;8.90;8.10;;;;;;;35.03;25.69;98901.53;5038126;27;103174;-76
2023/07/07 10:52:58;;;;;;;8.63;7.82;;;;;;;35.32;24.95;98889.13;5055886;27;103010;-74
2023/07/07 10:55:38;;;;;;;9.40;8.60;;;;;;;32.94;26.85;98890.25;5031229;27;103175;-72
2023/07/07 10:58:26;;;;;;;9.30;8.50;;;;;;;34.66;27.40;98894.13;5054196;27;103234;-71
2023/07/07 11:01:08;;;;;;;9.67;8.83;;;;;;;35.50;25.28;98885.94;5052799;27;102717;-71
2023/07/07 11:04:20;;;;;;;9.70;8.90;;;;;;;35.50;25.01;98883.19;5049472;27;103682;-76
2023/07/07 11:07:05;;;;;;;10.63;9.65;;;;;;;36.32;24.57;98876.91;5019035;27;104188;-72
2023/07/07 11:10:01;;;;;;;10.70;9.70;;;;;;;35.70;24.83;98886.06;5038238;27;102928;-74
2023/07/07 11:12:40;;;;;;;10.07;9.18;;;;;;;35.81;24.14;98885.00;5051165;27;102852;-76
2023/07/07 11:15:32;;;;;;;13.20;12.00;;;;;;;35.56;23.80;98882.16;5053076;27;103473;-75
2023/07/07 11:18:19;;;;;;;10.30;9.40;;;;;;;36.27;23.94;98874.97;5045855;27;103123;-76
2023/07/07 11:21:06;;;;;;;11.55;10.35;;;;;;;36.55;24.27;98874.47;5053374;27;102827;-75
2023/07/07 11:23:56;;;;;;;11.80;10.70;;;;;;;36.30;23.99;98868.09;5050525;27;102913;-74
2023/07/07 11:26:40;;;;;;;11.57;10.45;;;;;;;36.56;23.33;98872.56;5051328;27;103578;-78
2023/07/07 11:29:16;;;;;;;10.90;9.75;;;;;;;35.74;24.57;98875.34;5055059;27;103286;-72
2023/07/07 11:32:04;;;;;;;10.65;9.65;;;;;;;34.95;25.02;98873.47;5033625;27;102943;-80
2023/07/07 11:34:49;;;;;;;10.52;9.52;;;;;;;35.91;24.65;98874.03;5055478;27;102726;-76
2023/07/07 11:37:27;;;;;;;10.20;9.25;;;;;;;36.62;23.06;98865.94;5035299;27;104498;-76
2023/07/07 11:40:12;;;;;;;10.25;9.25;;;;;;;35.79;23.46;98867.94;5050637;27;103451;-76
2023/07/07 11:42:58;;;;;;;11.13;10.20;;;;;;;35.79;24.29;98870.69;5038954;27;102687;-78
2023/07/07 11:45:41;;;;;;;11.43;9.85;;;;;;;35.77;23.39;98864.63;5052301;27;104011;-77
2023/07/07 11:48:26;;;;;;;11.17;9.97;;;;;;;35.29;23.04;98873.16;5047511;27;103186;-78